Time;durP1;ratioP1;P1;durP2;ratioP2;P2;SDS_P1;SDS_P2;PMS_P1;PMS_P2;Temp;Humidity;BMP_temperature;BMP_pressure;BME280_temperature;BME280_humidity;BME280_pressure;Samples;Min_cycle;Max_cycle;Signal;HPM_P1;HPM_P2
2024/02/25 00:03:29;;;;;;;26.9;17.2;;;;;;;4.24;86.69;98198.333333333;;;;
2024/02/25 00:14:29;;;;;;;26.9;17.2;;;;;;;3.88;86.9;98203.333333333;;;;
2024/02/25 00:25:29;;;;;;;33.4;21.7;;;;;;;3.91;88.11;98198.333333333;;;;
2024/02/25 00:35:29;;;;;;;33.4;21.7;;;;;;;3.79;88.06;98200;;;;
2024/02/25 00:46:29;;;;;;;33.4;21.7;;;;;;;3.64;88.18;98193.333333333;;;;
2024/02/25 00:57:29;;;;;;;35.3;18.8;;;;;;;3.4;87.59;98181.666666667;;;;
2024/02/25 01:07:29;;;;;;;35.3;18.8;;;;;;;3.31;89.2;98171.666666667;;;;
2024/02/25 01:18:29;;;;;;;35.3;18.8;;;;;;;3.39;89.76;98160;;;;
2024/02/25 01:28:30;;;;;;;31.3;18.8;;;;;;;3.31;88.84;98156.666666667;;;;
2024/02/25 01:39:29;;;;;;;31.3;18.8;;;;;;;3.07;88.68;98155;;;;
2024/02/25 01:49:29;;;;;;;31.3;18.8;;;;;;;3.13;89.75;98158.333333333;;;;
2024/02/25 02:00:29;;;;;;;28.1;18.5;;;;;;;3.11;89.99;98160;;;;
2024/02/25 02:10:29;;;;;;;28.1;18.5;;;;;;;3.07;89.57;98168.333333333;;;;
2024/02/25 02:21:29;;;;;;;28.1;18.5;;;;;;;3.03;89.57;98183.333333333;;;;
2024/02/25 02:31:29;;;;;;;30.8;21.9;;;;;;;2.87;88.98;98181.666666667;;;;
2024/02/25 02:42:29;;;;;;;30.8;21.9;;;;;;;2.66;88.84;98178.333333333;;;;
2024/02/25 02:53:29;;;;;;;32.4;20.3;;;;;;;2.61;89.42;98188.333333333;;;;
2024/02/25 03:03:29;;;;;;;32.4;20.3;;;;;;;2.49;89.32;98191.666666667;;;;
2024/02/25 03:14:29;;;;;;;32.4;20.3;;;;;;;2.23;90.33;98186.666666667;;;;
2024/02/25 03:25:29;;;;;;;30.8;20;;;;;;;2.11;90.32;98196.666666667;;;;
2024/02/25 03:36:29;;;;;;;30.8;20;;;;;;;1.98;89.99;98221.666666667;;;;
2024/02/25 03:46:29;;;;;;;30.8;20;;;;;;;2.01;90.55;98228.333333333;;;;
2024/02/25 03:57:29;;;;;;;33;22.5;;;;;;;2.14;90.46;98223.333333333;;;;
2024/02/25 04:07:29;;;;;;;33;22.5;;;;;;;2.17;90.94;98215;;;;
2024/02/25 04:18:29;;;;;;;33;22.5;;;;;;;2.06;91.37;98213.333333333;;;;
2024/02/25 04:28:29;;;;;;;34.1;22;;;;;;;1.96;91.25;98195;;;;
2024/02/25 04:39:29;;;;;;;34.1;22;;;;;;;1.97;90.98;98210;;;;
2024/02/25 04:49:29;;;;;;;34.1;22;;;;;;;1.68;91.36;98210;;;;
2024/02/25 04:59:29;;;;;;;35;20.7;;;;;;;1.78;91.48;98196.666666667;;;;
2024/02/25 05:10:29;;;;;;;35;20.7;;;;;;;1.97;92.27;98216.666666667;;;;
2024/02/25 05:21:30;;;;;;;35;20.7;;;;;;;1.98;91.9;98225;;;;
2024/02/25 05:32:29;;;;;;;33;20.4;;;;;;;1.93;91.25;98228.333333333;;;;
2024/02/25 05:42:29;;;;;;;33;20.4;;;;;;;1.79;90.93;98228.333333333;;;;
2024/02/25 05:53:29;;;;;;;28.6;19.5;;;;;;;1.87;91.11;98238.333333333;;;;
2024/02/25 06:03:29;;;;;;;28.6;19.5;;;;;;;1.84;90.42;98231.666666667;;;;
2024/02/25 06:13:29;;;;;;;28.6;19.5;;;;;;;1.71;90.17;98220;;;;
2024/02/25 06:24:29;;;;;;;47.1;25.4;;;;;;;1.61;89.49;98218.333333333;;;;
2024/02/25 06:35:29;;;;;;;47.1;25.4;;;;;;;1.61;89.41;98216.666666667;;;;
2024/02/25 06:45:29;;;;;;;47.1;25.4;;;;;;;1.67;89.2;98211.666666667;;;;
2024/02/25 06:56:31;;;;;;;65.1;36.8;;;;;;;1.78;90.32;98220;;;;
2024/02/25 07:06:29;;;;;;;65.1;36.8;;;;;;;2.02;90.64;98228.333333333;;;;
2024/02/25 07:17:29;;;;;;;65.1;36.8;;;;;;;2.52;90.9;98233.333333333;;;;
2024/02/25 07:27:29;;;;;;;64.1;33.4;;;;;;;2.79;89.95;98223.333333333;;;;
2024/02/25 07:38:29;;;;;;;64.1;33.4;;;;;;;2.92;89.23;98198.333333333;;;;
2024/02/25 07:48:29;;;;;;;64.1;33.4;;;;;;;3.47;90.22;98186.666666667;;;;
2024/02/25 07:58:29;;;;;;;36.8;21.1;;;;;;;3.94;90.92;98168;;;;
2024/02/25 08:09:29;;;;;;;36.8;21.1;;;;;;;4.41;90.3;98156.666666667;;;;
2024/02/25 08:19:29;;;;;;;36.8;21.1;;;;;;;4.89;90.73;98138;;;;
2024/02/25 08:30:29;;;;;;;31.2;19.8;;;;;;;5.88;90.4;98128.333333333;;;;
2024/02/25 08:40:30;;;;;;;31.2;19.8;;;;;;;6.78;89.55;98128;;;;
2024/02/25 08:50:29;;;;;;;31.2;19.8;;;;;;;7.53;87.98;98114;;;;
2024/02/25 09:00:29;;;;;;;31.7;21.1;;;;;;;8.34;85.8;98124;;;;
2024/02/25 09:11:29;;;;;;;31.7;21.1;;;;;;;9.21;83.81;98124;;;;
2024/02/25 09:21:30;;;;;;;31.7;21.1;;;;;;;9.89;81.34;98101.666666667;;;;
2024/02/25 09:31:29;;;;;;;29.7;21.3;;;;;;;10.54;79.78;98114;;;;
2024/02/25 09:41:29;;;;;;;29.7;21.3;;;;;;;11.21;67.11;98104;;;;
2024/02/25 09:51:29;;;;;;;29.7;21.3;;;;;;;11.63;63.93;98106;;;;
2024/02/25 10:02:31;;;;;;;17.2;12.5;;;;;;;12.35;61.68;98092;;;;
2024/02/25 10:12:29;;;;;;;17.2;12.5;;;;;;;12.87;57.83;98070;;;;
2024/02/25 10:23:30;;;;;;;5.5;2.7;;;;;;;13.24;52.99;98058.333333333;;;;
2024/02/25 10:33:29;;;;;;;5.5;2.7;;;;;;;13.32;53.38;98031.666666667;;;;
2024/02/25 10:43:29;;;;;;;5.5;2.7;;;;;;;13.36;51.62;98031.666666667;;;;
2024/02/25 10:53:29;;;;;;;6.4;2.9;;;;;;;14.21;52.34;98021.666666667;;;;
2024/02/25 11:04:29;;;;;;;6.4;2.9;;;;;;;14.64;50.93;98011.666666667;;;;
2024/02/25 11:15:29;;;;;;;6.4;2.9;;;;;;;15.03;48.8;97983.333333333;;;;
2024/02/25 11:25:29;;;;;;;5.3;2.9;;;;;;;15.39;50.5;97975;;;;
2024/02/25 11:36:29;;;;;;;5.3;2.9;;;;;;;15.63;47.64;97958.333333333;;;;
2024/02/25 11:46:29;;;;;;;5.3;2.9;;;;;;;15.87;47.2;97952;;;;
2024/02/25 11:57:29;;;;;;;3.8;1.8;;;;;;;15.6;42.02;97940;;;;
2024/02/25 12:08:29;;;;;;;3.8;1.8;;;;;;;15.69;41.44;97940;;;;
2024/02/25 12:18:29;;;;;;;3.8;1.8;;;;;;;15.42;41.45;97923.333333333;;;;
2024/02/25 12:29:31;;;;;;;;;;;;;;;;;97911.666666667;;;;
2024/02/25 12:39:29;;;;;;;;;;;;;;;14.9;46.69;97911.666666667;;;;
2024/02/25 12:50:29;;;;;;;3.2;1.9;;;;;;;14.96;46.78;97901.666666667;;;;
2024/02/25 13:00:29;;;;;;;3.2;1.9;;;;;;;15.03;44.23;97893.333333333;;;;
2024/02/25 13:10:29;;;;;;;3.2;1.9;;;;;;;15.03;44.1;97888.333333333;;;;
2024/02/25 13:21:29;;;;;;;3.6;1.6;;;;;;;14.9;44.53;97883.333333333;;;;
2024/02/25 13:32:29;;;;;;;3.6;1.6;;;;;;;14.76;43.83;97880;;;;
2024/02/25 13:43:29;;;;;;;2.9;1.4;;;;;;;14.54;45.28;97875;;;;
2024/02/25 13:54:30;;;;;;;2.9;1.4;;;;;;;14.46;44.07;97875;;;;
2024/02/25 14:05:30;;;;;;;2.9;1.4;;;;;;;14.11;45.56;97873.333333333;;;;
2024/02/25 14:15:29;;;;;;;2.5;1;;;;;;;14.16;45.11;97871.666666667;;;;
2024/02/25 14:26:29;;;;;;;2.5;1;;;;;;;13.91;46.85;97870;;;;
2024/02/25 14:37:29;;;;;;;2.5;1;;;;;;;13.87;46.87;97870;;;;
2024/02/25 14:48:29;;;;;;;3;1.5;;;;;;;13.73;46.75;97853.333333333;;;;
2024/02/25 14:58:29;;;;;;;3;1.5;;;;;;;13.54;47.64;97855;;;;
2024/02/25 15:09:29;;;;;;;3;1.5;;;;;;;13.29;48.44;97851.666666667;;;;
2024/02/25 15:20:29;;;;;;;3.3;1.2;;;;;;;12.99;49.83;97846.666666667;;;;
2024/02/25 15:31:29;;;;;;;3.3;1.2;;;;;;;12.75;50.61;97846.666666667;;;;
2024/02/25 15:42:30;;;;;;;4.2;2.1;;;;;;;12.41;51.5;97840;;;;
2024/02/25 15:53:30;;;;;;;4.2;2.1;;;;;;;12.28;50.82;97846.666666667;;;;
2024/02/25 16:03:29;;;;;;;4.2;2.1;;;;;;;12.12;51.29;97851.666666667;;;;
2024/02/25 16:13:29;;;;;;;4.2;1.6;;;;;;;11.89;53.03;97845;;;;
2024/02/25 16:24:29;;;;;;;4.2;1.6;;;;;;;11.64;52.66;97841.666666667;;;;
2024/02/25 16:35:29;;;;;;;4.2;1.6;;;;;;;11.4;54.14;97840;;;;
2024/02/25 16:45:29;;;;;;;4.3;2.1;;;;;;;11.31;54.59;97840;;;;
2024/02/25 16:55:30;;;;;;;4.3;2.1;;;;;;;11.28;54.81;97841.666666667;;;;
2024/02/25 17:06:32;;;;;;;4.3;2.1;;;;;;;11.07;55.21;97845;;;;
2024/02/25 17:17:29;;;;;;;6;3.1;;;;;;;10.95;55.82;97838.333333333;;;;
2024/02/25 17:28:30;;;;;;;6;3.1;;;;;;;10.56;58.56;97840;;;;
2024/02/25 17:38:29;;;;;;;6;3.1;;;;;;;10.29;59.33;97850;;;;
2024/02/25 17:48:29;;;;;;;12.9;7.7;;;;;;;10.16;59.6;97846.666666667;;;;
2024/02/25 17:59:29;;;;;;;12.9;7.7;;;;;;;9.98;61.32;97843.333333333;;;;
2024/02/25 18:09:31;;;;;;;12.9;7.7;;;;;;;9.85;61.5;97841.666666667;;;;
2024/02/25 18:20:29;;;;;;;12.7;7;;;;;;;9.66;61.44;97835;;;;
2024/02/25 18:31:29;;;;;;;12.7;7;;;;;;;9.46;61.9;97836.666666667;;;;
2024/02/25 18:42:29;;;;;;;12.9;7.2;;;;;;;9.33;62.5;97836.666666667;;;;
2024/02/25 18:52:29;;;;;;;12.9;7.2;;;;;;;9.3;62.77;97831.666666667;;;;
2024/02/25 19:03:30;;;;;;;12.9;7.2;;;;;;;9.16;63.21;97831.666666667;;;;
2024/02/25 19:14:29;;;;;;;9.9;5.7;;;;;;;8.89;62.94;97833.333333333;;;;
2024/02/25 19:24:30;;;;;;;9.9;5.7;;;;;;;8.57;64.35;97830;;;;
2024/02/25 19:34:31;;;;;;;9.9;5.7;;;;;;;8.26;65.06;97826.666666667;;;;
2024/02/25 19:45:29;;;;;;;12.3;7.4;;;;;;;8.02;67.16;97820;;;;
2024/02/25 19:55:29;;;;;;;12.3;7.4;;;;;;;7.82;67.29;97815;;;;
2024/02/25 20:05:30;;;;;;;12.3;7.4;;;;;;;7.84;68.58;97813.333333333;;;;
2024/02/25 20:15:29;;;;;;;14.6;7;;;;;;;7.81;68.77;97806.666666667;;;;
2024/02/25 20:26:33;;;;;;;14.6;7;;;;;;;7.89;68.13;97800;;;;
2024/02/25 20:36:29;;;;;;;14.6;7;;;;;;;8.09;68.79;97803.333333333;;;;
2024/02/25 20:47:29;;;;;;;17.1;10;;;;;;;8.02;70.01;97803.333333333;;;;
2024/02/25 20:58:29;;;;;;;17.1;10;;;;;;;7.93;70.46;97805;;;;
2024/02/25 21:08:29;;;;;;;17.1;10;;;;;;;7.9;70.12;97803.333333333;;;;
2024/02/25 21:18:29;;;;;;;20.5;11.8;;;;;;;7.87;70.26;97793.333333333;;;;
2024/02/25 21:29:29;;;;;;;20.5;11.8;;;;;;;7.84;71.28;97786.666666667;;;;
2024/02/25 21:39:29;;;;;;;20.5;11.8;;;;;;;7.88;70.76;97790;;;;
2024/02/25 21:49:29;;;;;;;19.6;12.4;;;;;;;7.89;71.12;97785;;;;
2024/02/25 22:00:29;;;;;;;19.6;12.4;;;;;;;7.91;71.25;97791.666666667;;;;
2024/02/25 22:10:29;;;;;;;19.6;12.4;;;;;;;7.97;70.62;97791.666666667;;;;
2024/02/25 22:21:30;;;;;;;18.2;10.2;;;;;;;8.01;70.24;97788.333333333;;;;
2024/02/25 22:32:29;;;;;;;18.2;10.2;;;;;;;8.08;70.48;97788.333333333;;;;
2024/02/25 22:42:29;;;;;;;16.8;9.8;;;;;;;8.08;71;97720;;;;
2024/02/25 22:52:29;;;;;;;16.8;9.8;;;;;;;8.08;70.81;97788.333333333;;;;
2024/02/25 23:03:29;;;;;;;16.8;9.8;;;;;;;8;71.25;97783.333333333;;;;
2024/02/25 23:14:29;;;;;;;17.2;11.6;;;;;;;7.84;71.98;97786.666666667;;;;
2024/02/25 23:24:29;;;;;;;17.2;11.6;;;;;;;7.65;71.74;97771.666666667;;;;
2024/02/25 23:34:31;;;;;;;17.2;11.6;;;;;;;7.37;71.88;97760;;;;
2024/02/25 23:44:29;;;;;;;19;10.7;;;;;;;7.12;71.72;97758.333333333;;;;
2024/02/25 23:55:29;;;;;;;19;10.7;;;;;;;6.75;72.82;97756.666666667;;;;
